sensor_id;sensor_type;location;lat;lon;timestamp;temperature;humidity
51950;DHT22;37974;53.218;6.640;2023-07-30T00:01:33;15.60;99.90
51950;DHT22;37974;53.218;6.640;2023-07-30T00:03:59;15.60;99.90
51950;DHT22;37974;53.218;6.640;2023-07-30T00:06:25;15.60;99.90
51950;DHT22;37974;53.218;6.640;2023-07-30T00:08:51;15.70;99.90
51950;DHT22;37974;53.218;6.640;2023-07-30T00:11:16;15.70;99.90
51950;DHT22;37974;53.218;6.640;2023-07-30T00:13:42;15.70;99.90
51950;DHT22;37974;53.218;6.640;2023-07-30T00:16:08;15.70;99.90
51950;DHT22;37974;53.218;6.640;2023-07-30T00:18:34;15.70;99.90
51950;DHT22;37974;53.218;6.640;2023-07-30T00:20:59;15.70;99.90
51950;DHT22;37974;53.218;6.640;2023-07-30T00:23:25;15.70;99.90
51950;DHT22;37974;53.218;6.640;2023-07-30T00:25:51;15.70;99.90
51950;DHT22;37974;53.218;6.640;2023-07-30T00:28:16;15.60;99.90
51950;DHT22;37974;53.218;6.640;2023-07-30T00:30:42;15.70;99.90
51950;DHT22;37974;53.218;6.640;2023-07-30T00:33:08;15.60;99.90
51950;DHT22;37974;53.218;6.640;2023-07-30T00:35:36;15.60;99.90
51950;DHT22;37974;53.218;6.640;2023-07-30T00:38:02;15.60;99.90
51950;DHT22;37974;53.218;6.640;2023-07-30T00:40:28;15.60;99.90
51950;DHT22;37974;53.218;6.640;2023-07-30T00:42:53;15.60;99.90
51950;DHT22;37974;53.218;6.640;2023-07-30T00:45:19;15.60;99.90
51950;DHT22;37974;53.218;6.640;2023-07-30T00:47:45;15.60;99.90
51950;DHT22;37974;53.218;6.640;2023-07-30T00:50:13;15.60;99.90
51950;DHT22;37974;53.218;6.640;2023-07-30T00:52:40;15.60;99.90
51950;DHT22;37974;53.218;6.640;2023-07-30T00:55:07;15.60;99.90
51950;DHT22;37974;53.218;6.640;2023-07-30T00:57:34;15.60;99.90
51950;DHT22;37974;53.218;6.640;2023-07-30T01:00:01;15.60;99.90
51950;DHT22;37974;53.218;6.640;2023-07-30T01:02:31;15.50;99.90
51950;DHT22;37974;53.218;6.640;2023-07-30T01:04:57;15.60;99.90
51950;DHT22;37974;53.218;6.640;2023-07-30T01:07:23;15.60;99.90
51950;DHT22;37974;53.218;6.640;2023-07-30T01:09:49;15.50;99.90
51950;DHT22;37974;53.218;6.640;2023-07-30T01:12:15;15.50;99.90
51950;DHT22;37974;53.218;6.640;2023-07-30T01:14:41;15.50;99.90
51950;DHT22;37974;53.218;6.640;2023-07-30T01:17:08;15.60;99.90
51950;DHT22;37974;53.218;6.640;2023-07-30T01:19:33;15.60;99.90
51950;DHT22;37974;53.218;6.640;2023-07-30T01:21:59;15.60;99.90
51950;DHT22;37974;53.218;6.640;2023-07-30T01:24:25;15.60;99.90
51950;DHT22;37974;53.218;6.640;2023-07-30T01:27:02;15.60;99.90
51950;DHT22;37974;53.218;6.640;2023-07-30T01:29:38;15.60;99.90
51950;DHT22;37974;53.218;6.640;2023-07-30T01:32:08;15.60;99.90
51950;DHT22;37974;53.218;6.640;2023-07-30T01:34:37;15.70;99.90
51950;DHT22;37974;53.218;6.640;2023-07-30T01:37:08;15.70;99.90
51950;DHT22;37974;53.218;6.640;2023-07-30T01:39:36;15.70;99.90
51950;DHT22;37974;53.218;6.640;2023-07-30T01:42:04;15.70;99.90
51950;DHT22;37974;53.218;6.640;2023-07-30T01:44:29;15.70;99.90
51950;DHT22;37974;53.218;6.640;2023-07-30T01:46:55;15.80;99.90
51950;DHT22;37974;53.218;6.640;2023-07-30T01:49:21;15.70;99.90
51950;DHT22;37974;53.218;6.640;2023-07-30T01:51:46;15.80;99.90
51950;DHT22;37974;53.218;6.640;2023-07-30T01:54:12;15.80;99.90
51950;DHT22;37974;53.218;6.640;2023-07-30T01:56:39;15.80;99.90
51950;DHT22;37974;53.218;6.640;2023-07-30T01:59:04;15.80;99.90
51950;DHT22;37974;53.218;6.640;2023-07-30T02:01:30;15.80;99.90
51950;DHT22;37974;53.218;6.640;2023-07-30T02:03:56;15.80;99.90
51950;DHT22;37974;53.218;6.640;2023-07-30T02:06:21;15.90;99.90
51950;DHT22;37974;53.218;6.640;2023-07-30T02:08:47;15.90;99.90
51950;DHT22;37974;53.218;6.640;2023-07-30T02:11:13;15.90;99.90
51950;DHT22;37974;53.218;6.640;2023-07-30T02:13:38;15.90;99.90
51950;DHT22;37974;53.218;6.640;2023-07-30T02:16:04;15.90;99.90
51950;DHT22;37974;53.218;6.640;2023-07-30T02:18:30;16.00;99.90
51950;DHT22;37974;53.218;6.640;2023-07-30T02:20:56;16.00;99.90
51950;DHT22;37974;53.218;6.640;2023-07-30T02:23:21;16.00;99.90
51950;DHT22;37974;53.218;6.640;2023-07-30T02:25:47;16.00;99.90
51950;DHT22;37974;53.218;6.640;2023-07-30T02:28:13;16.00;99.90
51950;DHT22;37974;53.218;6.640;2023-07-30T02:30:38;16.10;99.90
51950;DHT22;37974;53.218;6.640;2023-07-30T02:33:04;16.10;99.90
51950;DHT22;37974;53.218;6.640;2023-07-30T02:35:30;16.10;99.90
51950;DHT22;37974;53.218;6.640;2023-07-30T02:37:56;16.10;99.90
51950;DHT22;37974;53.218;6.640;2023-07-30T02:40:21;16.10;99.90
51950;DHT22;37974;53.218;6.640;2023-07-30T02:42:47;16.10;99.90
51950;DHT22;37974;53.218;6.640;2023-07-30T02:45:13;16.10;99.90
51950;DHT22;37974;53.218;6.640;2023-07-30T02:47:39;16.10;99.90
51950;DHT22;37974;53.218;6.640;2023-07-30T02:50:05;16.00;99.90
51950;DHT22;37974;53.218;6.640;2023-07-30T02:52:31;16.00;99.90
51950;DHT22;37974;53.218;6.640;2023-07-30T02:54:57;16.00;99.90
51950;DHT22;37974;53.218;6.640;2023-07-30T02:57:23;15.90;99.90
51950;DHT22;37974;53.218;6.640;2023-07-30T02:59:48;15.90;99.90
51950;DHT22;37974;53.218;6.640;2023-07-30T03:02:14;15.90;99.90
51950;DHT22;37974;53.218;6.640;2023-07-30T03:04:40;15.80;99.90
51950;DHT22;37974;53.218;6.640;2023-07-30T03:07:06;15.80;99.90
51950;DHT22;37974;53.218;6.640;2023-07-30T03:09:32;15.70;99.90
51950;DHT22;37974;53.218;6.640;2023-07-30T03:11:58;15.80;99.90
51950;DHT22;37974;53.218;6.640;2023-07-30T03:14:24;15.70;99.90
51950;DHT22;37974;53.218;6.640;2023-07-30T03:16:50;15.70;99.90
51950;DHT22;37974;53.218;6.640;2023-07-30T03:19:16;15.60;99.90
51950;DHT22;37974;53.218;6.640;2023-07-30T03:21:41;15.60;99.90
51950;DHT22;37974;53.218;6.640;2023-07-30T03:24:07;15.60;99.90
51950;DHT22;37974;53.218;6.640;2023-07-30T03:26:33;15.50;99.90
51950;DHT22;37974;53.218;6.640;2023-07-30T03:28:59;15.50;99.90
51950;DHT22;37974;53.218;6.640;2023-07-30T03:31:25;15.40;99.90
51950;DHT22;37974;53.218;6.640;2023-07-30T03:33:51;15.40;99.90
51950;DHT22;37974;53.218;6.640;2023-07-30T03:36:16;15.40;99.90
51950;DHT22;37974;53.218;6.640;2023-07-30T03:38:43;15.30;99.90
51950;DHT22;37974;53.218;6.640;2023-07-30T03:41:10;15.30;99.90
51950;DHT22;37974;53.218;6.640;2023-07-30T03:43:36;15.30;99.90
51950;DHT22;37974;53.218;6.640;2023-07-30T03:46:02;15.30;99.90
51950;DHT22;37974;53.218;6.640;2023-07-30T03:48:28;15.30;99.90
51950;DHT22;37974;53.218;6.640;2023-07-30T03:50:55;15.30;99.90
51950;DHT22;37974;53.218;6.640;2023-07-30T03:53:21;15.30;99.90
51950;DHT22;37974;53.218;6.640;2023-07-30T03:55:47;15.30;99.90
51950;DHT22;37974;53.218;6.640;2023-07-30T03:58:13;15.20;99.90
51950;DHT22;37974;53.218;6.640;2023-07-30T04:00:39;15.20;99.90
51950;DHT22;37974;53.218;6.640;2023-07-30T04:03:04;15.20;99.90
51950;DHT22;37974;53.218;6.640;2023-07-30T04:05:30;15.20;99.90
51950;DHT22;37974;53.218;6.640;2023-07-30T04:07:56;15.20;99.90
51950;DHT22;37974;53.218;6.640;2023-07-30T04:10:22;15.20;99.90
51950;DHT22;37974;53.218;6.640;2023-07-30T04:12:48;15.20;99.90
51950;DHT22;37974;53.218;6.640;2023-07-30T04:15:15;15.20;99.90
51950;DHT22;37974;53.218;6.640;2023-07-30T04:17:41;15.20;99.90
51950;DHT22;37974;53.218;6.640;2023-07-30T04:20:08;15.20;99.90
51950;DHT22;37974;53.218;6.640;2023-07-30T04:22:35;15.20;99.90
51950;DHT22;37974;53.218;6.640;2023-07-30T04:25:01;15.30;99.90
51950;DHT22;37974;53.218;6.640;2023-07-30T04:27:26;15.30;99.90
51950;DHT22;37974;53.218;6.640;2023-07-30T04:29:52;15.30;99.90
51950;DHT22;37974;53.218;6.640;2023-07-30T04:32:18;15.30;99.90
51950;DHT22;37974;53.218;6.640;2023-07-30T04:34:44;15.30;99.90
51950;DHT22;37974;53.218;6.640;2023-07-30T04:37:09;15.30;99.90
51950;DHT22;37974;53.218;6.640;2023-07-30T04:39:35;15.30;99.90
51950;DHT22;37974;53.218;6.640;2023-07-30T04:42:02;15.30;99.90
51950;DHT22;37974;53.218;6.640;2023-07-30T04:44:28;15.30;99.90
51950;DHT22;37974;53.218;6.640;2023-07-30T04:46:54;15.40;99.90
51950;DHT22;37974;53.218;6.640;2023-07-30T04:49:20;15.40;99.90
51950;DHT22;37974;53.218;6.640;2023-07-30T04:51:45;15.40;99.90
51950;DHT22;37974;53.218;6.640;2023-07-30T04:54:11;15.50;99.90
51950;DHT22;37974;53.218;6.640;2023-07-30T04:56:37;15.50;99.90
51950;DHT22;37974;53.218;6.640;2023-07-30T04:59:03;15.60;99.90
51950;DHT22;37974;53.218;6.640;2023-07-30T05:01:29;15.70;99.90
51950;DHT22;37974;53.218;6.640;2023-07-30T05:03:56;15.80;99.90
51950;DHT22;37974;53.218;6.640;2023-07-30T05:06:23;15.90;99.90
51950;DHT22;37974;53.218;6.640;2023-07-30T05:08:48;15.90;99.90
51950;DHT22;37974;53.218;6.640;2023-07-30T05:11:14;15.90;99.90
51950;DHT22;37974;53.218;6.640;2023-07-30T05:13:40;15.90;99.90
51950;DHT22;37974;53.218;6.640;2023-07-30T05:16:06;15.90;99.90
51950;DHT22;37974;53.218;6.640;2023-07-30T05:18:31;15.90;99.90
51950;DHT22;37974;53.218;6.640;2023-07-30T05:20:57;16.00;99.90
51950;DHT22;37974;53.218;6.640;2023-07-30T05:23:23;16.00;99.90
51950;DHT22;37974;53.218;6.640;2023-07-30T05:25:49;16.00;99.90
51950;DHT22;37974;53.218;6.640;2023-07-30T05:28:15;16.10;99.90
51950;DHT22;37974;53.218;6.640;2023-07-30T05:30:41;16.10;99.90
51950;DHT22;37974;53.218;6.640;2023-07-30T05:33:06;16.20;99.90
51950;DHT22;37974;53.218;6.640;2023-07-30T05:35:32;16.20;99.90
51950;DHT22;37974;53.218;6.640;2023-07-30T05:37:58;16.20;99.90
51950;DHT22;37974;53.218;6.640;2023-07-30T05:40:23;16.30;99.90
51950;DHT22;37974;53.218;6.640;2023-07-30T05:42:49;16.30;99.90
51950;DHT22;37974;53.218;6.640;2023-07-30T05:45:15;16.40;99.90
51950;DHT22;37974;53.218;6.640;2023-07-30T05:47:40;16.40;99.90
51950;DHT22;37974;53.218;6.640;2023-07-30T05:50:07;16.50;99.90
51950;DHT22;37974;53.218;6.640;2023-07-30T05:52:33;16.60;99.90
51950;DHT22;37974;53.218;6.640;2023-07-30T05:54:59;16.70;99.90
51950;DHT22;37974;53.218;6.640;2023-07-30T05:57:25;16.70;99.90
51950;DHT22;37974;53.218;6.640;2023-07-30T05:59:51;16.80;99.90
51950;DHT22;37974;53.218;6.640;2023-07-30T06:02:17;16.80;99.90
51950;DHT22;37974;53.218;6.640;2023-07-30T06:04:42;16.80;99.90
51950;DHT22;37974;53.218;6.640;2023-07-30T06:07:08;16.80;99.90
51950;DHT22;37974;53.218;6.640;2023-07-30T06:09:34;16.90;99.90
51950;DHT22;37974;53.218;6.640;2023-07-30T06:12:00;16.90;99.90
51950;DHT22;37974;53.218;6.640;2023-07-30T06:14:26;16.90;99.90
51950;DHT22;37974;53.218;6.640;2023-07-30T06:16:53;17.00;99.90
51950;DHT22;37974;53.218;6.640;2023-07-30T06:19:19;17.00;99.90
51950;DHT22;37974;53.218;6.640;2023-07-30T06:21:45;17.10;99.90
51950;DHT22;37974;53.218;6.640;2023-07-30T06:24:11;17.10;99.90
51950;DHT22;37974;53.218;6.640;2023-07-30T06:26:36;17.10;99.90
51950;DHT22;37974;53.218;6.640;2023-07-30T06:29:02;17.10;99.90
51950;DHT22;37974;53.218;6.640;2023-07-30T06:31:28;17.10;99.90
51950;DHT22;37974;53.218;6.640;2023-07-30T06:33:54;17.10;99.90
51950;DHT22;37974;53.218;6.640;2023-07-30T06:36:19;17.20;99.90
51950;DHT22;37974;53.218;6.640;2023-07-30T06:38:45;17.20;99.90
51950;DHT22;37974;53.218;6.640;2023-07-30T06:41:11;17.30;99.90
51950;DHT22;37974;53.218;6.640;2023-07-30T06:43:40;17.30;99.90
51950;DHT22;37974;53.218;6.640;2023-07-30T06:46:07;17.40;99.90
51950;DHT22;37974;53.218;6.640;2023-07-30T06:48:34;17.50;99.90
51950;DHT22;37974;53.218;6.640;2023-07-30T06:50:59;17.60;99.90
51950;DHT22;37974;53.218;6.640;2023-07-30T06:53:25;17.60;99.90
51950;DHT22;37974;53.218;6.640;2023-07-30T06:55:51;17.70;99.90
51950;DHT22;37974;53.218;6.640;2023-07-30T06:58:16;17.80;99.90
51950;DHT22;37974;53.218;6.640;2023-07-30T07:00:42;17.80;99.90
51950;DHT22;37974;53.218;6.640;2023-07-30T07:03:08;17.80;99.90
51950;DHT22;37974;53.218;6.640;2023-07-30T07:05:34;17.80;99.90
51950;DHT22;37974;53.218;6.640;2023-07-30T07:07:59;17.80;99.90
51950;DHT22;37974;53.218;6.640;2023-07-30T07:10:25;17.90;99.90
51950;DHT22;37974;53.218;6.640;2023-07-30T07:12:51;18.00;99.90
51950;DHT22;37974;53.218;6.640;2023-07-30T07:15:17;18.10;99.90
51950;DHT22;37974;53.218;6.640;2023-07-30T07:17:42;18.20;99.90
51950;DHT22;37974;53.218;6.640;2023-07-30T07:20:08;18.30;99.90
51950;DHT22;37974;53.218;6.640;2023-07-30T07:22:34;18.30;99.90
51950;DHT22;37974;53.218;6.640;2023-07-30T07:25:05;18.30;99.90
51950;DHT22;37974;53.218;6.640;2023-07-30T07:27:33;18.30;99.90
51950;DHT22;37974;53.218;6.640;2023-07-30T07:29:58;18.20;99.90
51950;DHT22;37974;53.218;6.640;2023-07-30T07:32:25;18.20;99.90
51950;DHT22;37974;53.218;6.640;2023-07-30T07:34:51;18.20;99.90
51950;DHT22;37974;53.218;6.640;2023-07-30T07:37:17;18.30;99.90
51950;DHT22;37974;53.218;6.640;2023-07-30T07:39:44;18.40;99.90
51950;DHT22;37974;53.218;6.640;2023-07-30T07:42:10;18.60;99.90
51950;DHT22;37974;53.218;6.640;2023-07-30T07:44:36;18.70;99.90
51950;DHT22;37974;53.218;6.640;2023-07-30T07:47:02;18.90;99.90
51950;DHT22;37974;53.218;6.640;2023-07-30T07:49:28;19.00;99.90
51950;DHT22;37974;53.218;6.640;2023-07-30T07:51:54;19.20;99.90
51950;DHT22;37974;53.218;6.640;2023-07-30T07:54:21;19.50;99.90
51950;DHT22;37974;53.218;6.640;2023-07-30T07:56:47;19.80;99.90
51950;DHT22;37974;53.218;6.640;2023-07-30T07:59:13;19.80;99.90
51950;DHT22;37974;53.218;6.640;2023-07-30T08:01:39;19.90;99.90
51950;DHT22;37974;53.218;6.640;2023-07-30T08:04:05;19.70;99.90
51950;DHT22;37974;53.218;6.640;2023-07-30T08:06:34;19.60;99.90
51950;DHT22;37974;53.218;6.640;2023-07-30T08:08:59;19.40;99.90
51950;DHT22;37974;53.218;6.640;2023-07-30T08:11:25;19.20;99.90
51950;DHT22;37974;53.218;6.640;2023-07-30T08:13:51;19.00;99.90
51950;DHT22;37974;53.218;6.640;2023-07-30T08:16:17;18.90;99.90
51950;DHT22;37974;53.218;6.640;2023-07-30T08:18:42;18.90;99.90
51950;DHT22;37974;53.218;6.640;2023-07-30T08:21:09;18.90;99.90
51950;DHT22;37974;53.218;6.640;2023-07-30T08:23:34;18.80;99.90
51950;DHT22;37974;53.218;6.640;2023-07-30T08:26:00;18.80;99.90
51950;DHT22;37974;53.218;6.640;2023-07-30T08:28:26;18.80;99.90
51950;DHT22;37974;53.218;6.640;2023-07-30T08:30:51;18.80;99.90
51950;DHT22;37974;53.218;6.640;2023-07-30T08:33:17;18.90;99.90
51950;DHT22;37974;53.218;6.640;2023-07-30T08:35:43;18.90;99.90
51950;DHT22;37974;53.218;6.640;2023-07-30T08:38:08;19.00;99.90
51950;DHT22;37974;53.218;6.640;2023-07-30T08:40:34;19.00;99.90
51950;DHT22;37974;53.218;6.640;2023-07-30T08:43:02;19.00;99.90
51950;DHT22;37974;53.218;6.640;2023-07-30T08:45:29;18.90;99.90
51950;DHT22;37974;53.218;6.640;2023-07-30T08:47:54;18.80;99.90
51950;DHT22;37974;53.218;6.640;2023-07-30T08:50:20;18.80;99.90
51950;DHT22;37974;53.218;6.640;2023-07-30T08:52:47;18.70;99.90
51950;DHT22;37974;53.218;6.640;2023-07-30T08:55:13;18.70;99.90
51950;DHT22;37974;53.218;6.640;2023-07-30T08:57:41;18.70;99.90
51950;DHT22;37974;53.218;6.640;2023-07-30T09:00:09;18.80;99.90
51950;DHT22;37974;53.218;6.640;2023-07-30T09:02:43;18.80;99.90
51950;DHT22;37974;53.218;6.640;2023-07-30T09:05:10;18.90;99.90
51950;DHT22;37974;53.218;6.640;2023-07-30T09:07:36;19.10;99.90
51950;DHT22;37974;53.218;6.640;2023-07-30T09:10:02;19.20;99.90
51950;DHT22;37974;53.218;6.640;2023-07-30T09:12:32;19.30;99.90
51950;DHT22;37974;53.218;6.640;2023-07-30T09:14:58;19.40;99.90
51950;DHT22;37974;53.218;6.640;2023-07-30T09:17:24;19.50;99.90
51950;DHT22;37974;53.218;6.640;2023-07-30T09:19:52;19.50;99.90
51950;DHT22;37974;53.218;6.640;2023-07-30T09:22:36;19.50;99.90
51950;DHT22;37974;53.218;6.640;2023-07-30T09:25:04;19.50;99.90
51950;DHT22;37974;53.218;6.640;2023-07-30T09:27:32;19.30;99.90
51950;DHT22;37974;53.218;6.640;2023-07-30T09:30:02;19.20;99.90
51950;DHT22;37974;53.218;6.640;2023-07-30T09:32:33;19.00;99.90
51950;DHT22;37974;53.218;6.640;2023-07-30T09:35:10;18.90;99.90
51950;DHT22;37974;53.218;6.640;2023-07-30T09:37:37;18.90;99.90
51950;DHT22;37974;53.218;6.640;2023-07-30T09:40:09;18.80;99.90
51950;DHT22;37974;53.218;6.640;2023-07-30T09:42:38;18.80;99.90
51950;DHT22;37974;53.218;6.640;2023-07-30T09:45:06;18.90;99.90
51950;DHT22;37974;53.218;6.640;2023-07-30T09:47:37;19.10;99.90
51950;DHT22;37974;53.218;6.640;2023-07-30T09:50:03;19.10;99.90
51950;DHT22;37974;53.218;6.640;2023-07-30T09:52:30;19.20;99.90
51950;DHT22;37974;53.218;6.640;2023-07-30T09:54:58;19.30;99.90
51950;DHT22;37974;53.218;6.640;2023-07-30T09:57:24;19.30;99.90
51950;DHT22;37974;53.218;6.640;2023-07-30T09:59:50;19.40;99.90
51950;DHT22;37974;53.218;6.640;2023-07-30T10:02:16;19.40;99.90
51950;DHT22;37974;53.218;6.640;2023-07-30T10:04:43;19.50;99.90
51950;DHT22;37974;53.218;6.640;2023-07-30T10:07:21;19.60;99.90
51950;DHT22;37974;53.218;6.640;2023-07-30T10:09:48;19.70;99.90
51950;DHT22;37974;53.218;6.640;2023-07-30T10:12:21;19.70;99.90
51950;DHT22;37974;53.218;6.640;2023-07-30T10:14:48;19.70;99.90
51950;DHT22;37974;53.218;6.640;2023-07-30T10:17:16;19.50;99.90
51950;DHT22;37974;53.218;6.640;2023-07-30T10:19:47;19.40;99.90
51950;DHT22;37974;53.218;6.640;2023-07-30T10:24:56;19.20;99.90
51950;DHT22;37974;53.218;6.640;2023-07-30T10:27:27;19.20;99.90
51950;DHT22;37974;53.218;6.640;2023-07-30T10:30:17;19.10;99.90
51950;DHT22;37974;53.218;6.640;2023-07-30T10:35:40;19.60;99.90
51950;DHT22;37974;53.218;6.640;2023-07-30T10:38:13;20.00;99.90
51950;DHT22;37974;53.218;6.640;2023-07-30T10:40:40;20.30;99.90
51950;DHT22;37974;53.218;6.640;2023-07-30T10:43:16;20.20;99.90
51950;DHT22;37974;53.218;6.640;2023-07-30T10:45:52;19.80;99.90
51950;DHT22;37974;53.218;6.640;2023-07-30T10:48:18;19.40;99.90
51950;DHT22;37974;53.218;6.640;2023-07-30T10:50:44;19.00;99.90
51950;DHT22;37974;53.218;6.640;2023-07-30T10:53:14;18.80;99.90
51950;DHT22;37974;53.218;6.640;2023-07-30T10:55:42;18.50;99.90
51950;DHT22;37974;53.218;6.640;2023-07-30T10:58:08;18.50;99.90
51950;DHT22;37974;53.218;6.640;2023-07-30T11:00:33;18.60;99.90
51950;DHT22;37974;53.218;6.640;2023-07-30T11:02:59;18.70;99.90
51950;DHT22;37974;53.218;6.640;2023-07-30T11:05:25;18.80;99.90
51950;DHT22;37974;53.218;6.640;2023-07-30T11:07:51;18.70;99.90
51950;DHT22;37974;53.218;6.640;2023-07-30T11:10:18;18.90;99.90
51950;DHT22;37974;53.218;6.640;2023-07-30T11:12:43;19.20;99.90
51950;DHT22;37974;53.218;6.640;2023-07-30T11:15:09;19.40;99.90
51950;DHT22;37974;53.218;6.640;2023-07-30T11:17:35;19.70;99.90
51950;DHT22;37974;53.218;6.640;2023-07-30T11:20:01;19.70;99.90
51950;DHT22;37974;53.218;6.640;2023-07-30T11:22:31;19.80;99.90
51950;DHT22;37974;53.218;6.640;2023-07-30T11:24:57;19.80;99.90
51950;DHT22;37974;53.218;6.640;2023-07-30T11:27:23;20.20;99.90
51950;DHT22;37974;53.218;6.640;2023-07-30T11:29:56;20.40;99.90
51950;DHT22;37974;53.218;6.640;2023-07-30T11:32:22;20.70;99.90
51950;DHT22;37974;53.218;6.640;2023-07-30T11:34:54;20.90;99.90
51950;DHT22;37974;53.218;6.640;2023-07-30T11:37:21;21.00;99.90
51950;DHT22;37974;53.218;6.640;2023-07-30T11:39:47;21.10;99.90
51950;DHT22;37974;53.218;6.640;2023-07-30T11:42:13;21.30;99.90
51950;DHT22;37974;53.218;6.640;2023-07-30T11:44:39;21.40;99.90
51950;DHT22;37974;53.218;6.640;2023-07-30T11:47:08;21.40;99.90
51950;DHT22;37974;53.218;6.640;2023-07-30T11:49:37;21.30;99.90
51950;DHT22;37974;53.218;6.640;2023-07-30T11:52:07;21.10;99.90
51950;DHT22;37974;53.218;6.640;2023-07-30T11:54:34;20.90;99.90
51950;DHT22;37974;53.218;6.640;2023-07-30T11:56:59;20.80;99.90
51950;DHT22;37974;53.218;6.640;2023-07-30T11:59:25;20.90;99.90
51950;DHT22;37974;53.218;6.640;2023-07-30T12:01:51;21.10;99.90
51950;DHT22;37974;53.218;6.640;2023-07-30T12:04:18;21.30;99.90
51950;DHT22;37974;53.218;6.640;2023-07-30T12:06:44;21.50;99.90
51950;DHT22;37974;53.218;6.640;2023-07-30T12:09:15;21.70;99.90
51950;DHT22;37974;53.218;6.640;2023-07-30T12:11:57;21.70;99.90
51950;DHT22;37974;53.218;6.640;2023-07-30T12:14:44;21.40;99.90
51950;DHT22;37974;53.218;6.640;2023-07-30T12:17:10;20.90;99.90
51950;DHT22;37974;53.218;6.640;2023-07-30T12:19:36;20.50;99.90
51950;DHT22;37974;53.218;6.640;2023-07-30T12:22:02;20.10;99.90
51950;DHT22;37974;53.218;6.640;2023-07-30T12:24:27;19.80;99.90
51950;DHT22;37974;53.218;6.640;2023-07-30T12:26:53;19.60;99.90
51950;DHT22;37974;53.218;6.640;2023-07-30T12:29:19;19.40;99.90
51950;DHT22;37974;53.218;6.640;2023-07-30T12:31:45;19.50;99.90
51950;DHT22;37974;53.218;6.640;2023-07-30T12:34:12;19.60;99.90
51950;DHT22;37974;53.218;6.640;2023-07-30T12:36:38;19.70;99.90
51950;DHT22;37974;53.218;6.640;2023-07-30T12:39:03;19.90;99.90
51950;DHT22;37974;53.218;6.640;2023-07-30T12:41:29;20.00;99.90
51950;DHT22;37974;53.218;6.640;2023-07-30T12:43:56;20.10;99.90
51950;DHT22;37974;53.218;6.640;2023-07-30T12:46:25;20.20;99.90
51950;DHT22;37974;53.218;6.640;2023-07-30T12:48:55;20.30;99.90
51950;DHT22;37974;53.218;6.640;2023-07-30T12:51:21;20.30;99.90
51950;DHT22;37974;53.218;6.640;2023-07-30T12:53:47;20.30;99.90
51950;DHT22;37974;53.218;6.640;2023-07-30T12:56:13;20.40;99.90
51950;DHT22;37974;53.218;6.640;2023-07-30T12:58:41;20.50;99.90
51950;DHT22;37974;53.218;6.640;2023-07-30T13:01:07;20.60;99.90
51950;DHT22;37974;53.218;6.640;2023-07-30T13:03:32;20.80;99.90
51950;DHT22;37974;53.218;6.640;2023-07-30T13:05:58;21.00;99.90
51950;DHT22;37974;53.218;6.640;2023-07-30T13:08:25;21.20;99.90
51950;DHT22;37974;53.218;6.640;2023-07-30T13:10:51;21.20;99.90
51950;DHT22;37974;53.218;6.640;2023-07-30T13:13:17;21.00;99.90
51950;DHT22;37974;53.218;6.640;2023-07-30T13:15:42;20.80;99.90
51950;DHT22;37974;53.218;6.640;2023-07-30T13:18:08;20.50;99.90
51950;DHT22;37974;53.218;6.640;2023-07-30T13:20:34;20.50;99.90
51950;DHT22;37974;53.218;6.640;2023-07-30T13:23:01;20.50;99.90
51950;DHT22;37974;53.218;6.640;2023-07-30T13:25:27;20.50;99.90
51950;DHT22;37974;53.218;6.640;2023-07-30T13:27:52;20.50;99.90
51950;DHT22;37974;53.218;6.640;2023-07-30T13:30:18;20.80;99.90
51950;DHT22;37974;53.218;6.640;2023-07-30T13:32:44;20.90;99.90
51950;DHT22;37974;53.218;6.640;2023-07-30T13:35:09;20.90;99.90
51950;DHT22;37974;53.218;6.640;2023-07-30T13:37:35;21.00;99.90
51950;DHT22;37974;53.218;6.640;2023-07-30T13:40:03;21.10;99.90
51950;DHT22;37974;53.218;6.640;2023-07-30T13:42:29;21.10;99.90
51950;DHT22;37974;53.218;6.640;2023-07-30T13:44:54;21.10;99.90
51950;DHT22;37974;53.218;6.640;2023-07-30T13:47:20;21.00;99.90
51950;DHT22;37974;53.218;6.640;2023-07-30T13:49:46;20.90;99.90
51950;DHT22;37974;53.218;6.640;2023-07-30T13:52:14;20.80;99.90
51950;DHT22;37974;53.218;6.640;2023-07-30T13:54:43;20.90;99.90
51950;DHT22;37974;53.218;6.640;2023-07-30T13:57:10;20.90;99.90
51950;DHT22;37974;53.218;6.640;2023-07-30T13:59:36;21.10;99.90
51950;DHT22;37974;53.218;6.640;2023-07-30T14:02:05;21.20;99.90
51950;DHT22;37974;53.218;6.640;2023-07-30T14:04:30;21.30;99.90
51950;DHT22;37974;53.218;6.640;2023-07-30T14:06:56;21.40;99.90
51950;DHT22;37974;53.218;6.640;2023-07-30T14:09:22;21.60;99.90
51950;DHT22;37974;53.218;6.640;2023-07-30T14:11:50;21.70;99.90
51950;DHT22;37974;53.218;6.640;2023-07-30T14:14:16;21.70;99.90
51950;DHT22;37974;53.218;6.640;2023-07-30T14:16:43;21.70;99.90
51950;DHT22;37974;53.218;6.640;2023-07-30T14:19:09;21.70;99.90
51950;DHT22;37974;53.218;6.640;2023-07-30T14:21:34;21.60;99.90
51950;DHT22;37974;53.218;6.640;2023-07-30T14:24:00;21.50;99.90
51950;DHT22;37974;53.218;6.640;2023-07-30T14:26:29;21.30;99.90
51950;DHT22;37974;53.218;6.640;2023-07-30T14:28:58;21.40;99.90
51950;DHT22;37974;53.218;6.640;2023-07-30T14:31:24;21.40;99.90
51950;DHT22;37974;53.218;6.640;2023-07-30T14:33:49;21.30;99.90
51950;DHT22;37974;53.218;6.640;2023-07-30T14:36:17;21.30;99.90
51950;DHT22;37974;53.218;6.640;2023-07-30T14:38:42;21.30;99.90
51950;DHT22;37974;53.218;6.640;2023-07-30T14:41:08;21.40;99.90
51950;DHT22;37974;53.218;6.640;2023-07-30T14:43:35;21.40;99.90
51950;DHT22;37974;53.218;6.640;2023-07-30T14:46:02;21.40;99.90
51950;DHT22;37974;53.218;6.640;2023-07-30T14:48:28;21.30;99.90
51950;DHT22;37974;53.218;6.640;2023-07-30T14:50:54;21.10;99.90
51950;DHT22;37974;53.218;6.640;2023-07-30T14:53:20;20.90;99.90
51950;DHT22;37974;53.218;6.640;2023-07-30T14:55:45;20.60;99.90
51950;DHT22;37974;53.218;6.640;2023-07-30T14:58:11;20.50;99.90
51950;DHT22;37974;53.218;6.640;2023-07-30T15:00:37;20.40;99.90
51950;DHT22;37974;53.218;6.640;2023-07-30T15:03:03;20.30;99.90
51950;DHT22;37974;53.218;6.640;2023-07-30T15:05:30;20.10;99.90
51950;DHT22;37974;53.218;6.640;2023-07-30T15:07:56;19.90;99.90
51950;DHT22;37974;53.218;6.640;2023-07-30T15:10:22;19.60;99.90
51950;DHT22;37974;53.218;6.640;2023-07-30T15:12:47;19.40;99.90
51950;DHT22;37974;53.218;6.640;2023-07-30T15:15:14;19.10;99.90
51950;DHT22;37974;53.218;6.640;2023-07-30T15:17:40;18.80;99.90
51950;DHT22;37974;53.218;6.640;2023-07-30T15:20:06;18.50;99.90
51950;DHT22;37974;53.218;6.640;2023-07-30T15:22:32;18.30;99.90
51950;DHT22;37974;53.218;6.640;2023-07-30T15:24:59;18.30;99.90
51950;DHT22;37974;53.218;6.640;2023-07-30T15:27:24;18.60;99.90
51950;DHT22;37974;53.218;6.640;2023-07-30T15:29:50;19.10;99.90
51950;DHT22;37974;53.218;6.640;2023-07-30T15:32:16;19.30;99.90